sensor_id;sensor_type;location;lat;lon;timestamp;temperature;humidity
57664;DHT22;43493;53.098;6.064;2022-12-07T09:55:12;4.80;99.90
57664;DHT22;43493;53.098;6.064;2022-12-07T09:57:39;4.90;99.90
57664;DHT22;43493;53.098;6.064;2022-12-07T10:00:15;4.90;99.90
57664;DHT22;43493;53.098;6.064;2022-12-07T10:05:21;5.20;99.90
57664;DHT22;43493;53.098;6.064;2022-12-07T10:07:47;5.00;99.90
57664;DHT22;43493;53.098;6.064;2022-12-07T10:10:29;4.90;99.90
57664;DHT22;43493;53.098;6.064;2022-12-07T10:13:01;4.90;99.90
57664;DHT22;43493;53.098;6.064;2022-12-07T10:18:26;5.00;99.90
57664;DHT22;43493;53.098;6.064;2022-12-07T10:21:05;5.00;99.90
57664;DHT22;43493;53.098;6.064;2022-12-07T10:23:34;5.00;99.90
57664;DHT22;43493;53.098;6.064;2022-12-07T10:26:20;5.00;99.90
57664;DHT22;43493;53.098;6.064;2022-12-07T10:28:47;5.00;99.90
57664;DHT22;43493;53.098;6.064;2022-12-07T10:31:19;5.00;99.90
57664;DHT22;43493;53.098;6.064;2022-12-07T10:33:54;5.00;99.90
57664;DHT22;43493;53.098;6.064;2022-12-07T10:41:24;5.00;99.90
57664;DHT22;43493;53.098;6.064;2022-12-07T10:43:55;5.10;99.90
57664;DHT22;43493;53.098;6.064;2022-12-07T10:49:17;5.30;99.90
57664;DHT22;43493;53.098;6.064;2022-12-07T10:51:55;5.40;99.90
57664;DHT22;43493;53.098;6.064;2022-12-07T10:57:27;5.50;99.90
57664;DHT22;43493;53.098;6.064;2022-12-07T11:00:17;5.50;99.90
57664;DHT22;43493;53.098;6.064;2022-12-07T11:11:14;5.30;99.90
57664;DHT22;43493;53.098;6.064;2022-12-07T11:16:39;5.30;99.90
57664;DHT22;43493;53.098;6.064;2022-12-07T11:24:32;5.30;99.90
57664;DHT22;43493;53.098;6.064;2022-12-07T11:30:18;5.30;99.90
57664;DHT22;43493;53.098;6.064;2022-12-07T11:33:11;5.30;99.90
57664;DHT22;43493;53.098;6.064;2022-12-07T11:35:45;5.30;99.90
57664;DHT22;43493;53.098;6.064;2022-12-07T11:38:17;5.20;99.90
57664;DHT22;43493;53.098;6.064;2022-12-07T11:40:51;5.30;99.90
57664;DHT22;43493;53.098;6.064;2022-12-07T11:43:26;5.20;99.90
57664;DHT22;43493;53.098;6.064;2022-12-07T11:46:09;5.30;99.90
57664;DHT22;43493;53.098;6.064;2022-12-07T11:49:02;5.40;99.90
57664;DHT22;43493;53.098;6.064;2022-12-07T11:51:33;5.50;99.90
57664;DHT22;43493;53.098;6.064;2022-12-07T11:54:26;5.50;99.90
57664;DHT22;43493;53.098;6.064;2022-12-07T11:56:53;5.60;99.90
57664;DHT22;43493;53.098;6.064;2022-12-07T12:02:14;5.40;99.90
57664;DHT22;43493;53.098;6.064;2022-12-07T12:07:15;5.20;99.90
57664;DHT22;43493;53.098;6.064;2022-12-07T12:09:49;5.10;99.90
57664;DHT22;43493;53.098;6.064;2022-12-07T12:15:39;5.00;99.90
57664;DHT22;43493;53.098;6.064;2022-12-07T12:18:29;4.80;99.90
57664;DHT22;43493;53.098;6.064;2022-12-07T12:21:14;4.80;99.90
57664;DHT22;43493;53.098;6.064;2022-12-07T12:23:56;4.80;99.90
57664;DHT22;43493;53.098;6.064;2022-12-07T12:26:26;4.70;99.90
57664;DHT22;43493;53.098;6.064;2022-12-07T12:28:58;4.80;99.90
57664;DHT22;43493;53.098;6.064;2022-12-07T12:34:02;4.80;99.90
57664;DHT22;43493;53.098;6.064;2022-12-07T12:54:22;5.20;99.90
57664;DHT22;43493;53.098;6.064;2022-12-07T12:57:18;5.20;99.90
57664;DHT22;43493;53.098;6.064;2022-12-07T13:00:00;5.20;99.90
57664;DHT22;43493;53.098;6.064;2022-12-07T13:02:32;5.20;99.90
57664;DHT22;43493;53.098;6.064;2022-12-07T13:15:36;5.30;99.90
57664;DHT22;43493;53.098;6.064;2022-12-07T13:34:37;5.40;99.90
57664;DHT22;43493;53.098;6.064;2022-12-07T13:37:25;5.40;99.90
57664;DHT22;43493;53.098;6.064;2022-12-07T13:39:54;5.30;99.90
57664;DHT22;43493;53.098;6.064;2022-12-07T13:42:32;5.30;99.90
57664;DHT22;43493;53.098;6.064;2022-12-07T13:45:00;5.30;99.90
57664;DHT22;43493;53.098;6.064;2022-12-07T13:47:36;5.40;99.90
57664;DHT22;43493;53.098;6.064;2022-12-07T13:50:26;5.30;99.90
57664;DHT22;43493;53.098;6.064;2022-12-07T13:52:55;5.30;99.90
57664;DHT22;43493;53.098;6.064;2022-12-07T13:55:21;5.30;99.90
57664;DHT22;43493;53.098;6.064;2022-12-07T13:57:50;5.30;99.90
57664;DHT22;43493;53.098;6.064;2022-12-07T14:00:19;5.20;99.90
57664;DHT22;43493;53.098;6.064;2022-12-07T14:05:43;5.10;99.90
57664;DHT22;43493;53.098;6.064;2022-12-07T14:13:37;5.10;99.90
57664;DHT22;43493;53.098;6.064;2022-12-07T14:18:43;5.00;99.90
57664;DHT22;43493;53.098;6.064;2022-12-07T14:23:35;5.00;99.90
57664;DHT22;43493;53.098;6.064;2022-12-07T14:26:12;4.90;99.90
57664;DHT22;43493;53.098;6.064;2022-12-07T14:28:38;4.90;99.90
57664;DHT22;43493;53.098;6.064;2022-12-07T14:33:35;4.80;99.90
57664;DHT22;43493;53.098;6.064;2022-12-07T14:36:02;4.80;99.90
57664;DHT22;43493;53.098;6.064;2022-12-07T14:38:27;4.80;99.90
57664;DHT22;43493;53.098;6.064;2022-12-07T14:40:54;4.80;99.90
57664;DHT22;43493;53.098;6.064;2022-12-07T14:43:40;4.80;99.90
57664;DHT22;43493;53.098;6.064;2022-12-07T14:46:06;4.80;99.90
57664;DHT22;43493;53.098;6.064;2022-12-07T14:48:32;4.80;99.90
57664;DHT22;43493;53.098;6.064;2022-12-07T14:50:58;4.90;99.90
57664;DHT22;43493;53.098;6.064;2022-12-07T14:53:29;4.90;99.90
57664;DHT22;43493;53.098;6.064;2022-12-07T14:55:55;4.80;99.90
57664;DHT22;43493;53.098;6.064;2022-12-07T14:58:21;4.80;99.90
57664;DHT22;43493;53.098;6.064;2022-12-07T15:00:46;4.90;99.90
57664;DHT22;43493;53.098;6.064;2022-12-07T15:03:13;4.90;99.90
57664;DHT22;43493;53.098;6.064;2022-12-07T15:08:05;5.00;99.90
57664;DHT22;43493;53.098;6.064;2022-12-07T15:12:59;4.90;99.90
57664;DHT22;43493;53.098;6.064;2022-12-07T15:20:38;5.00;99.90
57664;DHT22;43493;53.098;6.064;2022-12-07T15:23:04;4.90;99.90
57664;DHT22;43493;53.098;6.064;2022-12-07T15:25:30;5.30;99.90
57664;DHT22;43493;53.098;6.064;2022-12-07T15:27:55;5.00;99.90
57664;DHT22;43493;53.098;6.064;2022-12-07T15:30:21;4.90;99.90
57664;DHT22;43493;53.098;6.064;2022-12-07T15:32:51;4.90;99.90
57664;DHT22;43493;53.098;6.064;2022-12-07T15:45:03;4.70;99.90
57664;DHT22;43493;53.098;6.064;2022-12-07T15:47:34;4.70;99.90
57664;DHT22;43493;53.098;6.064;2022-12-07T15:50:02;4.70;99.90
57664;DHT22;43493;53.098;6.064;2022-12-07T15:52:29;4.70;99.90
57664;DHT22;43493;53.098;6.064;2022-12-07T15:54:55;4.60;99.90
57664;DHT22;43493;53.098;6.064;2022-12-07T15:57:21;4.60;99.90
57664;DHT22;43493;53.098;6.064;2022-12-07T15:59:47;4.60;99.90
57664;DHT22;43493;53.098;6.064;2022-12-07T16:02:12;4.60;99.90
57664;DHT22;43493;53.098;6.064;2022-12-07T16:04:38;4.60;99.90
57664;DHT22;43493;53.098;6.064;2022-12-07T16:07:04;4.60;99.90
57664;DHT22;43493;53.098;6.064;2022-12-07T16:09:31;4.60;99.90
57664;DHT22;43493;53.098;6.064;2022-12-07T16:11:56;4.60;99.90
57664;DHT22;43493;53.098;6.064;2022-12-07T16:14:22;4.60;99.90
57664;DHT22;43493;53.098;6.064;2022-12-07T16:16:48;4.50;99.90
57664;DHT22;43493;53.098;6.064;2022-12-07T16:19:14;4.50;99.90
57664;DHT22;43493;53.098;6.064;2022-12-07T16:21:40;4.50;99.90
57664;DHT22;43493;53.098;6.064;2022-12-07T16:24:06;4.50;99.90
57664;DHT22;43493;53.098;6.064;2022-12-07T16:26:32;4.40;99.90
57664;DHT22;43493;53.098;6.064;2022-12-07T16:28:58;4.50;99.90
57664;DHT22;43493;53.098;6.064;2022-12-07T16:31:25;4.40;99.90
